createdAt,value
2022-08-05T00:00:19.708Z,3.90
2022-08-05T00:03:06.065Z,3.80
2022-08-05T00:06:06.487Z,3.90
2022-08-05T00:08:34.865Z,4.10
2022-08-05T00:11:20.564Z,3.60
2022-08-05T00:13:56.461Z,3.50
2022-08-05T00:16:35.564Z,3.90
2022-08-05T00:19:06.017Z,3.60
2022-08-05T00:21:35.614Z,3.30
2022-08-05T00:26:51.978Z,3.20
2022-08-05T00:29:22.747Z,3.00
2022-08-05T00:32:13.385Z,3.60
2022-08-05T00:35:03.807Z,2.80
2022-08-05T00:38:09.365Z,3.40
2022-08-05T00:40:51.784Z,3.30
2022-08-05T00:43:22.641Z,3.50
2022-08-05T00:45:53.420Z,3.60
2022-08-05T00:48:50.254Z,3.20
2022-08-05T00:54:15.071Z,3.10
2022-08-05T00:56:51.588Z,3.50
2022-08-05T00:59:20.280Z,3.20
2022-08-05T01:01:49.387Z,3.40
2022-08-05T01:04:20.254Z,3.20
2022-08-05T01:06:55.653Z,3.70
2022-08-05T01:09:24.228Z,3.50
2022-08-05T01:12:18.075Z,3.30
2022-08-05T01:15:35.616Z,3.60
2022-08-05T01:18:10.100Z,3.80
2022-08-05T01:21:26.014Z,4.30
2022-08-05T01:24:40.984Z,3.80
2022-08-05T01:27:55.397Z,3.50
2022-08-05T01:30:34.271Z,3.50
2022-08-05T01:33:10.264Z,4.00
2022-08-05T01:35:50.709Z,3.90
2022-08-05T01:38:27.332Z,3.70
2022-08-05T01:41:01.403Z,3.70
2022-08-05T01:43:34.774Z,3.80
2022-08-05T01:46:07.276Z,4.10
2022-08-05T01:48:55.772Z,4.00
2022-08-05T01:51:25.506Z,4.00
2022-08-05T01:54:02.173Z,4.30
2022-08-05T01:58:10.036Z,4.30
2022-08-05T02:02:20.565Z,3.80
2022-08-05T02:05:05.336Z,4.20
2022-08-05T02:07:47.286Z,3.80
2022-08-05T02:10:35.509Z,3.80
2022-08-05T02:13:17.686Z,4.00
2022-08-05T02:15:54.499Z,4.90
2022-08-05T02:18:35.425Z,4.70
2022-08-05T02:21:15.134Z,5.40
2022-08-05T02:23:49.247Z,5.00
2022-08-05T02:26:26.722Z,5.50
2022-08-05T02:28:58.120Z,5.70
2022-08-05T02:31:34.884Z,5.20
2022-08-05T02:34:09.198Z,5.30
2022-08-05T02:36:52.790Z,4.20
2022-08-05T02:39:23.683Z,4.00
2022-08-05T02:41:58.164Z,4.30
2022-08-05T02:44:32.586Z,4.40
2022-08-05T02:47:02.127Z,4.10
2022-08-05T02:49:37.895Z,4.60
2022-08-05T02:52:29.652Z,4.30
2022-08-05T02:55:05.565Z,4.50
2022-08-05T02:58:10.568Z,5.00
2022-08-05T03:00:29.712Z,4.40
2022-08-05T03:03:00.519Z,4.20
2022-08-05T03:06:55.096Z,4.50
2022-08-05T03:08:27.157Z,4.90
2022-08-05T03:11:53.166Z,5.00
2022-08-05T03:14:02.775Z,4.40
2022-08-05T03:16:32.305Z,4.90
2022-08-05T03:19:08.772Z,5.00
2022-08-05T03:21:49.473Z,5.40
2022-08-05T03:24:29.456Z,5.20
2022-08-05T03:27:01.485Z,5.10
2022-08-05T03:29:44.661Z,5.20
2022-08-05T03:32:19.756Z,5.00
2022-08-05T03:34:51.139Z,4.80
2022-08-05T03:37:23.736Z,4.80
2022-08-05T03:40:04.037Z,5.00
2022-08-05T03:42:51.501Z,4.60
2022-08-05T03:45:23.397Z,5.30
2022-08-05T03:47:56.962Z,6.10
2022-08-05T03:50:36.295Z,6.10
2022-08-05T03:55:00.365Z,5.50
2022-08-05T03:56:31.891Z,5.60
2022-08-05T03:59:20.218Z,5.40
2022-08-05T04:01:51.357Z,5.30
2022-08-05T04:04:21.779Z,5.20
2022-08-05T04:07:09.124Z,5.00
2022-08-05T04:09:38.155Z,4.80
2022-08-05T04:12:24.391Z,4.80
2022-08-05T04:14:54.459Z,5.30
2022-08-05T04:17:55.511Z,5.20
2022-08-05T04:20:23.219Z,5.00
2022-08-05T04:22:51.648Z,5.80
2022-08-05T04:25:24.171Z,5.60
2022-08-05T04:28:12.759Z,5.20
2022-08-05T04:30:42.948Z,5.30
2022-08-05T04:33:15.292Z,5.00
2022-08-05T04:36:16.764Z,5.50
2022-08-05T04:38:39.849Z,6.10
2022-08-05T04:41:10.171Z,5.50
2022-08-05T04:43:46.581Z,5.50
2022-08-05T04:46:30.125Z,5.40
2022-08-05T04:48:59.891Z,6.50
2022-08-05T04:51:30.544Z,8.20
2022-08-05T04:54:01.309Z,7.30
2022-08-05T04:56:34.828Z,7.20
2022-08-05T04:59:21.437Z,6.70
2022-08-05T05:02:07.671Z,6.40
2022-08-05T05:04:47.804Z,7.00
2022-08-05T05:07:18.774Z,5.90
2022-08-05T05:09:58.165Z,5.60
2022-08-05T05:12:27.896Z,6.00
2022-08-05T05:14:56.355Z,7.00
2022-08-05T05:17:56.929Z,6.20
2022-08-05T05:20:14.651Z,6.70
2022-08-05T05:22:44.102Z,6.30
2022-08-05T05:25:15.988Z,5.80
2022-08-05T05:27:53.774Z,5.80
2022-08-05T05:30:29.213Z,5.80
2022-08-05T05:33:08.805Z,5.90
2022-08-05T05:35:47.705Z,5.70
2022-08-05T05:38:26.992Z,5.70
2022-08-05T05:40:57.341Z,6.00
2022-08-05T05:43:54.246Z,5.10
2022-08-05T05:46:16.120Z,4.80
2022-08-05T05:48:48.848Z,5.30
2022-08-05T05:51:27.839Z,5.50
2022-08-05T05:53:59.968Z,4.90
2022-08-05T05:56:32.271Z,5.10
2022-08-05T05:59:05.747Z,4.30
2022-08-05T06:01:39.499Z,4.30
2022-08-05T06:06:53.880Z,5.10
2022-08-05T06:09:25.926Z,5.50
2022-08-05T06:12:05.654Z,5.40
2022-08-05T06:14:40.276Z,5.50
2022-08-05T06:17:24.528Z,4.70
2022-08-05T06:19:59.064Z,4.90
2022-08-05T06:22:33.602Z,4.40
2022-08-05T06:25:24.983Z,4.00
2022-08-05T06:28:10.625Z,4.30
2022-08-05T06:30:44.541Z,4.30
2022-08-05T06:33:19.458Z,4.90
2022-08-05T06:36:07.664Z,4.10
2022-08-05T06:38:38.333Z,4.00
2022-08-05T06:41:15.667Z,4.10
2022-08-05T06:43:58.967Z,4.80
2022-08-05T06:46:29.828Z,8.50
2022-08-05T06:49:02.024Z,6.20
2022-08-05T06:51:34.786Z,4.50
2022-08-05T06:54:05.288Z,5.90
2022-08-05T06:56:36.995Z,3.40
2022-08-05T06:59:09.594Z,4.10
2022-08-05T07:01:42.481Z,3.60
2022-08-05T07:04:11.186Z,3.80
2022-08-05T07:06:42.861Z,3.90
2022-08-05T07:09:11.740Z,3.80
2022-08-05T07:11:46.671Z,3.20
2022-08-05T07:14:38.767Z,3.90
2022-08-05T07:18:00.225Z,3.20
2022-08-05T07:22:45.704Z,3.50
2022-08-05T07:25:23.655Z,3.70
2022-08-05T07:28:08.149Z,3.70
2022-08-05T07:30:39.763Z,4.10
2022-08-05T07:33:15.719Z,4.00
2022-08-05T07:36:04.594Z,3.70
2022-08-05T07:38:43.412Z,3.50
2022-08-05T07:42:07.861Z,4.10
2022-08-05T07:44:18.912Z,3.50
2022-08-05T07:46:50.145Z,3.40
2022-08-05T07:49:20.703Z,3.70
2022-08-05T07:54:41.403Z,3.80
2022-08-05T07:57:41.515Z,3.60
2022-08-05T08:00:06.721Z,3.50
2022-08-05T08:03:13.932Z,3.90
2022-08-05T08:08:12.301Z,3.80
2022-08-05T08:10:43.164Z,2.90
2022-08-05T08:13:21.933Z,3.10
2022-08-05T08:16:35.119Z,3.00
2022-08-05T08:18:52.687Z,3.00
2022-08-05T08:21:21.951Z,3.40
2022-08-05T08:24:03.270Z,3.10
2022-08-05T08:26:33.393Z,3.30
2022-08-05T08:29:21.998Z,3.10
2022-08-05T08:31:52.548Z,3.30
2022-08-05T08:34:30.333Z,3.00
2022-08-05T08:39:53.700Z,2.70
2022-08-05T08:42:34.361Z,2.90
2022-08-05T08:45:25.163Z,2.90
2022-08-05T08:51:03.650Z,2.90
2022-08-05T08:53:45.027Z,2.70
2022-08-05T08:56:22.297Z,2.60
2022-08-05T08:58:51.824Z,2.70
2022-08-05T09:01:26.812Z,2.60
2022-08-05T09:04:00.619Z,2.50
2022-08-05T09:06:32.369Z,2.40
2022-08-05T09:09:06.579Z,2.40
2022-08-05T09:11:51.155Z,2.30
2022-08-05T09:14:56.692Z,2.50
2022-08-05T09:17:42.302Z,2.30
2022-08-05T09:20:11.150Z,2.50
2022-08-05T09:23:09.042Z,2.60
2022-08-05T09:26:03.155Z,2.40
2022-08-05T09:28:31.895Z,2.20
2022-08-05T09:31:43.914Z,2.10
2022-08-05T09:34:19.714Z,1.90
2022-08-05T09:36:54.493Z,2.10
2022-08-05T09:39:41.990Z,2.30
2022-08-05T09:42:24.099Z,2.60
2022-08-05T09:45:17.844Z,2.20
2022-08-05T09:47:55.517Z,2.00
2022-08-05T09:50:38.652Z,2.20
2022-08-05T09:53:22.959Z,2.20
2022-08-05T09:56:04.909Z,2.00
2022-08-05T09:58:41.875Z,2.30
2022-08-05T10:01:22.394Z,2.50
2022-08-05T10:04:12.883Z,2.50
2022-08-05T10:07:31.825Z,2.30
2022-08-05T10:10:13.926Z,2.50
2022-08-05T10:12:49.971Z,2.60
2022-08-05T10:15:25.764Z,2.60
2022-08-05T10:18:05.480Z,2.60
2022-08-05T10:20:36.104Z,2.50
2022-08-05T10:23:08.981Z,2.80
2022-08-05T10:26:16.199Z,2.30
2022-08-05T10:28:46.777Z,2.70
2022-08-05T10:32:49.304Z,2.70
2022-08-05T10:34:07.950Z,2.30
2022-08-05T10:36:39.979Z,2.70
2022-08-05T10:39:59.442Z,2.40
2022-08-05T10:42:34.116Z,2.40
2022-08-05T10:45:21.434Z,2.10
2022-08-05T10:48:29.242Z,2.50
2022-08-05T10:51:05.362Z,2.20
2022-08-05T10:53:50.717Z,2.30
2022-08-05T10:56:26.018Z,2.50
2022-08-05T10:58:54.819Z,2.20
2022-08-05T11:01:55.250Z,2.30
2022-08-05T11:06:58.319Z,2.60
2022-08-05T11:09:49.814Z,2.20
2022-08-05T11:12:24.918Z,2.30
2022-08-05T11:15:19.596Z,2.50
2022-08-05T11:17:59.587Z,2.80
2022-08-05T11:20:47.650Z,2.60
2022-08-05T11:24:02.248Z,2.10
2022-08-05T11:26:28.280Z,2.30
2022-08-05T11:29:12.937Z,2.20
2022-08-05T11:31:57.291Z,2.30
2022-08-05T11:34:51.257Z,2.40
2022-08-05T11:38:30.467Z,2.40
2022-08-05T11:41:03.482Z,2.50
2022-08-05T11:44:08.498Z,2.10
2022-08-05T11:47:10.350Z,2.50
2022-08-05T11:51:57.649Z,2.50
2022-08-05T11:54:34.931Z,2.50
2022-08-05T11:57:08.520Z,2.50
2022-08-05T11:59:53.699Z,2.50
2022-08-05T12:02:32.995Z,2.40
2022-08-05T12:08:07.282Z,2.40
2022-08-05T12:10:43.508Z,2.50
2022-08-05T12:13:27.888Z,2.50
2022-08-05T12:16:14.521Z,2.20
2022-08-05T12:18:49.013Z,2.60
2022-08-05T12:21:34.209Z,2.60
2022-08-05T12:24:12.876Z,2.50
2022-08-05T12:26:43.921Z,2.40
2022-08-05T12:29:22.466Z,2.30
2022-08-05T12:31:57.044Z,2.30
2022-08-05T12:34:39.645Z,2.40
2022-08-05T12:37:17.231Z,2.50
2022-08-05T12:39:51.362Z,2.80
2022-08-05T12:42:21.498Z,2.30
2022-08-05T12:45:11.757Z,2.20
2022-08-05T12:47:43.423Z,2.30
2022-08-05T12:50:30.901Z,2.20
2022-08-05T12:53:01.496Z,2.40
2022-08-05T12:55:32.541Z,2.60
2022-08-05T12:58:38.959Z,2.40
2022-08-05T13:02:00.630Z,2.60
2022-08-05T13:03:52.377Z,2.50
2022-08-05T13:06:20.754Z,3.00
2022-08-05T13:08:52.141Z,2.80
2022-08-05T13:12:02.150Z,2.70
2022-08-05T13:14:36.301Z,2.90
2022-08-05T13:17:15.705Z,3.00
2022-08-05T13:22:28.547Z,3.10
2022-08-05T13:25:00.715Z,3.00
2022-08-05T13:27:38.056Z,3.10
2022-08-05T13:30:33.835Z,3.30
2022-08-05T13:33:04.093Z,3.20
2022-08-05T13:38:30.563Z,3.50
2022-08-05T13:41:04.296Z,3.80
2022-08-05T13:43:43.529Z,3.60
2022-08-05T13:46:35.677Z,3.70
2022-08-05T13:49:10.034Z,3.80
2022-08-05T13:52:15.871Z,4.00
2022-08-05T13:54:44.464Z,3.60
2022-08-05T13:57:24.301Z,3.40
2022-08-05T13:59:57.268Z,3.30
2022-08-05T14:02:29.826Z,3.50
2022-08-05T14:05:12.051Z,3.60
2022-08-05T14:08:00.953Z,3.60
2022-08-05T14:10:37.447Z,3.80
2022-08-05T14:13:07.955Z,3.70
2022-08-05T14:16:07.367Z,3.80
2022-08-05T14:18:25.419Z,4.00
2022-08-05T14:20:54.800Z,4.40
2022-08-05T14:23:26.038Z,4.90
2022-08-05T14:26:35.643Z,5.30
2022-08-05T14:29:20.455Z,5.50
2022-08-05T14:32:11.237Z,5.60
2022-08-05T14:34:42.787Z,6.20
2022-08-05T14:37:13.406Z,6.90
2022-08-05T14:39:50.259Z,6.20
2022-08-05T14:42:25.830Z,5.70
2022-08-05T14:44:54.299Z,5.60
2022-08-05T14:48:02.913Z,5.20
2022-08-05T14:50:25.319Z,5.20
2022-08-05T14:52:58.617Z,4.60
2022-08-05T14:55:38.509Z,4.70
2022-08-05T14:58:11.986Z,4.50
2022-08-05T15:00:58.549Z,5.20
2022-08-05T15:03:34.124Z,5.30
2022-08-05T15:06:14.871Z,5.60
2022-08-05T15:09:03.546Z,5.90
2022-08-05T15:11:51.239Z,6.20
2022-08-05T15:14:35.680Z,6.30
2022-08-05T15:17:45.509Z,6.20
2022-08-05T15:19:58.692Z,6.80
2022-08-05T15:22:28.383Z,6.30
2022-08-05T15:24:59.511Z,7.20
2022-08-05T15:27:32.263Z,7.10
2022-08-05T15:30:05.308Z,6.90
2022-08-05T15:32:33.658Z,6.30
2022-08-05T15:38:34.387Z,6.00
2022-08-05T15:41:00.151Z,5.90
2022-08-05T15:43:20.388Z,5.60
2022-08-05T15:45:59.715Z,6.40
2022-08-05T15:48:30.157Z,5.90
2022-08-05T15:51:01.550Z,7.60
2022-08-05T15:53:38.234Z,5.90
2022-08-05T15:56:20.267Z,7.10
2022-08-05T15:58:49.216Z,7.60
2022-08-05T16:01:19.165Z,7.50
2022-08-05T16:03:50.894Z,6.60
2022-08-05T16:06:20.921Z,7.90
2022-08-05T16:08:53.621Z,6.30
2022-08-05T16:11:42.560Z,6.90
2022-08-05T16:14:17.317Z,6.10
2022-08-05T16:16:47.118Z,6.00
2022-08-05T16:19:25.569Z,5.50
2022-08-05T16:22:05.342Z,5.70
2022-08-05T16:24:40.153Z,6.50
2022-08-05T16:27:09.519Z,5.80
2022-08-05T16:29:38.053Z,6.30
2022-08-05T16:34:42.632Z,5.10
2022-08-05T16:38:01.755Z,4.80
2022-08-05T16:40:29.246Z,4.90
2022-08-05T16:42:57.959Z,4.30
2022-08-05T16:46:06.067Z,4.70
2022-08-05T16:51:02.518Z,4.70
2022-08-05T16:54:04.113Z,5.70
2022-08-05T16:56:31.239Z,4.80
2022-08-05T16:59:08.127Z,5.20
2022-08-05T17:01:52.785Z,5.30
2022-08-05T17:04:28.372Z,5.20
2022-08-05T17:07:03.106Z,4.30
2022-08-05T17:09:58.023Z,3.70
2022-08-05T17:12:51.598Z,3.60
2022-08-05T17:15:47.842Z,4.60
2022-08-05T17:18:16.615Z,3.90
2022-08-05T17:20:54.189Z,3.90
2022-08-05T17:24:03.036Z,4.50
2022-08-05T17:26:11.995Z,3.80
2022-08-05T17:28:43.344Z,3.70
2022-08-05T17:31:24.404Z,3.60
2022-08-05T17:34:05.623Z,3.80
2022-08-05T17:36:40.360Z,4.10
2022-08-05T17:39:23.932Z,3.10
2022-08-05T17:42:20.234Z,3.60
2022-08-05T17:44:50.303Z,3.20
2022-08-05T17:47:30.175Z,3.30
2022-08-05T17:50:10.765Z,3.50
2022-08-05T17:55:37.235Z,3.30
2022-08-05T17:58:21.626Z,3.00
2022-08-05T18:01:09.917Z,3.10
2022-08-05T18:03:58.695Z,2.90
2022-08-05T18:07:00.506Z,2.60
2022-08-05T18:09:58.883Z,3.00
2022-08-05T18:12:29.189Z,2.90
2022-08-05T18:14:58.628Z,3.10
2022-08-05T18:18:10.863Z,2.50
2022-08-05T18:26:01.206Z,2.40
2022-08-05T18:31:23.761Z,2.90
2022-08-05T18:33:58.811Z,2.90
2022-08-05T18:36:43.692Z,2.90
2022-08-05T18:39:22.228Z,2.20
2022-08-05T18:42:11.574Z,2.60
2022-08-05T18:44:58.799Z,2.60
2022-08-05T18:47:28.928Z,2.70
2022-08-05T18:50:21.561Z,3.10
2022-08-05T18:53:17.576Z,4.00
2022-08-05T18:55:48.069Z,3.10
2022-08-05T18:58:29.145Z,3.20
2022-08-05T19:00:57.846Z,2.60
2022-08-05T19:06:34.138Z,2.30
2022-08-05T19:09:40.158Z,2.30
2022-08-05T19:12:10.603Z,2.60
2022-08-05T19:15:00.916Z,2.60
2022-08-05T19:18:08.218Z,3.30
2022-08-05T19:20:28.070Z,2.40
2022-08-05T19:23:02.582Z,2.70
2022-08-05T19:25:50.977Z,2.60
2022-08-05T19:28:34.264Z,2.60
2022-08-05T19:33:56.392Z,2.90
2022-08-05T19:36:29.216Z,2.90
2022-08-05T19:39:07.255Z,2.90
2022-08-05T19:42:05.823Z,3.00
2022-08-05T19:44:29.215Z,2.90
2022-08-05T19:47:16.184Z,2.80
2022-08-05T19:49:46.207Z,3.00
2022-08-05T19:52:31.726Z,3.30
2022-08-05T20:00:32.239Z,3.30
2022-08-05T20:03:01.050Z,3.40
2022-08-05T20:05:50.051Z,2.90
2022-08-05T20:11:02.477Z,3.00
2022-08-05T20:13:58.634Z,3.20
2022-08-05T20:16:24.730Z,3.40
2022-08-05T20:21:43.434Z,3.50
2022-08-05T20:24:14.543Z,3.70
2022-08-05T20:26:44.586Z,3.90
2022-08-05T20:29:26.598Z,4.70
2022-08-05T20:31:58.327Z,3.50
2022-08-05T20:34:28.440Z,4.40
2022-08-05T20:36:56.914Z,4.10
2022-08-05T20:40:25.165Z,4.20
2022-08-05T20:48:41.179Z,4.30
2022-08-05T20:51:16.348Z,4.80
2022-08-05T20:53:55.206Z,4.40
2022-08-05T20:56:29.799Z,4.20
2022-08-05T20:58:59.812Z,5.40
2022-08-05T21:01:37.382Z,4.40
2022-08-05T21:04:12.771Z,3.90
2022-08-05T21:06:45.549Z,4.40
2022-08-05T21:09:16.141Z,4.10
2022-08-05T21:12:06.623Z,4.20
2022-08-05T21:14:35.269Z,3.90
2022-08-05T21:17:05.069Z,3.80
2022-08-05T21:22:28.867Z,3.60
2022-08-05T21:25:06.698Z,3.40
2022-08-05T21:27:52.580Z,3.50
2022-08-05T21:30:32.111Z,3.30
2022-08-05T21:33:11.281Z,3.30
2022-08-05T21:35:58.294Z,3.10
2022-08-05T21:38:28.104Z,3.10
2022-08-05T21:40:57.120Z,3.40
2022-08-05T21:43:26.356Z,3.50
2022-08-05T21:46:02.093Z,3.10
2022-08-05T21:48:32.667Z,3.20
2022-08-05T21:51:01.883Z,3.40
2022-08-05T21:53:30.304Z,3.70
2022-08-05T21:56:16.228Z,3.80
2022-08-05T21:58:58.082Z,3.60
2022-08-05T22:01:26.914Z,3.80
2022-08-05T22:04:02.025Z,3.50
2022-08-05T22:06:34.748Z,3.50
2022-08-05T22:09:13.898Z,3.60
2022-08-05T22:11:49.644Z,3.40
2022-08-05T22:14:33.885Z,3.50
2022-08-05T22:17:06.826Z,3.80
2022-08-05T22:19:57.535Z,3.50
2022-08-05T22:22:29.616Z,3.40
2022-08-05T22:25:27.784Z,3.70
2022-08-05T22:28:14.025Z,3.60
2022-08-05T22:30:56.200Z,3.40
2022-08-05T22:33:57.819Z,3.30
2022-08-05T22:36:27.466Z,3.50
2022-08-05T22:38:57.493Z,3.10
2022-08-05T22:42:10.687Z,2.90
2022-08-05T22:44:21.027Z,3.60
2022-08-05T22:46:51.069Z,3.30
2022-08-05T22:49:46.073Z,3.10
2022-08-05T22:52:15.443Z,3.10
2022-08-05T22:54:51.729Z,3.00
2022-08-05T22:57:20.076Z,3.00
2022-08-05T22:59:51.989Z,3.40
2022-08-05T23:02:29.756Z,3.30
2022-08-05T23:05:01.424Z,3.50
2022-08-05T23:07:45.163Z,3.60
2022-08-05T23:10:20.149Z,3.50
2022-08-05T23:12:54.569Z,3.40
2022-08-05T23:15:26.895Z,3.60
2022-08-05T23:18:02.434Z,3.40
2022-08-05T23:20:37.442Z,3.40
2022-08-05T23:23:08.364Z,3.20
2022-08-05T23:25:54.616Z,3.40
2022-08-05T23:28:29.373Z,3.10
2022-08-05T23:31:16.496Z,3.30
2022-08-05T23:34:06.221Z,3.30
2022-08-05T23:36:39.964Z,3.10
2022-08-05T23:39:23.942Z,3.50
2022-08-05T23:42:01.440Z,3.20
2022-08-05T23:44:32.498Z,3.60
2022-08-05T23:47:02.475Z,4.00
2022-08-05T23:49:47.491Z,3.10
2022-08-05T23:52:35.942Z,3.40
2022-08-05T23:55:08.986Z,3.40
2022-08-05T23:57:38.227Z,3.50
